createdAt,value
2016-09-07T00:00:49.170Z,0
2016-09-07T00:01:49.024Z,0
2016-09-07T00:02:48.878Z,0
2016-09-07T00:03:49.871Z,0
2016-09-07T00:04:48.887Z,0
2016-09-07T00:05:48.904Z,0
2016-09-07T00:06:48.953Z,0
2016-09-07T00:07:47.973Z,0
2016-09-07T00:08:47.976Z,0
2016-09-07T00:09:48.927Z,0
2016-09-07T00:10:48.954Z,0
2016-09-07T00:11:48.319Z,0
2016-09-07T00:12:48.528Z,0
2016-09-07T00:13:48.960Z,0
2016-09-07T00:14:50.166Z,0
2016-09-07T00:15:48.348Z,0
2016-09-07T00:16:48.671Z,0
2016-09-07T00:17:48.366Z,0
2016-09-07T00:18:48.368Z,0
2016-09-07T00:19:48.996Z,0
2016-09-07T00:20:49.009Z,0
2016-09-07T00:21:49.025Z,0
2016-09-07T00:22:49.023Z,0
2016-09-07T00:23:49.343Z,0
2016-09-07T00:24:48.739Z,0
2016-09-07T00:25:50.119Z,0
2016-09-07T00:26:48.113Z,0
2016-09-07T00:27:49.063Z,0
2016-09-07T00:28:48.753Z,0
2016-09-07T00:29:49.386Z,0
2016-09-07T00:30:49.081Z,0
2016-09-07T00:31:49.094Z,0
2016-09-07T00:32:49.409Z,0
2016-09-07T00:33:49.102Z,0
2016-09-07T00:34:49.108Z,0
2016-09-07T00:35:48.489Z,0
2016-09-07T00:36:49.695Z,0
2016-09-07T00:37:48.507Z,0
2016-09-07T00:38:48.874Z,0
2016-09-07T00:39:48.839Z,0
2016-09-07T00:40:49.253Z,0
2016-09-07T00:41:49.158Z,0
2016-09-07T00:42:48.899Z,0
2016-09-07T00:43:48.863Z,0
2016-09-07T00:44:48.607Z,0
2016-09-07T00:45:49.746Z,0
2016-09-07T00:46:48.885Z,0
2016-09-07T00:47:49.790Z,0
2016-09-07T00:48:49.211Z,0
2016-09-07T00:49:51.103Z,0
2016-09-07T00:50:49.549Z,0
2016-09-07T00:51:48.915Z,0
2016-09-07T00:52:48.614Z,0
2016-09-07T00:53:48.627Z,0
2016-09-07T00:54:48.627Z,0
2016-09-07T00:55:48.956Z,0
2016-09-07T00:56:50.585Z,0
2016-09-07T00:57:49.273Z,0
2016-09-07T00:58:49.937Z,0
2016-09-07T00:59:49.024Z,0
2016-09-07T01:00:51.267Z,0
2016-09-07T01:01:48.420Z,0
2016-09-07T01:02:49.305Z,0
2016-09-07T01:03:49.010Z,0
2016-09-07T01:04:48.701Z,0
2016-09-07T01:05:49.018Z,0
2016-09-07T01:06:49.668Z,0
2016-09-07T01:07:49.446Z,0
2016-09-07T01:08:49.045Z,0
2016-09-07T01:09:49.749Z,0
2016-09-07T01:10:49.057Z,0
2016-09-07T01:11:51.076Z,0
2016-09-07T01:12:49.072Z,0
2016-09-07T01:13:49.083Z,0
2016-09-07T01:14:48.776Z,0
2016-09-07T01:15:49.090Z,0
2016-09-07T01:16:49.099Z,0
2016-09-07T01:17:48.792Z,0
2016-09-07T01:18:49.431Z,0
2016-09-07T01:19:49.131Z,0
2016-09-07T01:20:49.627Z,0
2016-09-07T01:21:49.444Z,0
2016-09-07T01:22:50.774Z,0
2016-09-07T01:23:48.849Z,0
2016-09-07T01:24:49.941Z,0
2016-09-07T01:25:48.541Z,0
2016-09-07T01:26:49.480Z,0
2016-09-07T01:27:49.809Z,0
2016-09-07T01:28:49.501Z,0
2016-09-07T01:29:49.198Z,0
2016-09-07T01:30:48.580Z,0
2016-09-07T01:31:48.897Z,0
2016-09-07T01:32:48.903Z,0
2016-09-07T01:33:50.859Z,0
2016-09-07T01:34:49.228Z,0
2016-09-07T01:35:49.588Z,0
2016-09-07T01:36:49.239Z,0
2016-09-07T01:37:49.879Z,0
2016-09-07T01:38:48.942Z,0
2016-09-07T01:39:49.268Z,0
2016-09-07T01:40:49.008Z,0
2016-09-07T01:41:48.967Z,0
2016-09-07T01:42:49.597Z,0
2016-09-07T01:43:49.666Z,0
2016-09-07T01:44:50.564Z,0
2016-09-07T01:45:49.669Z,0
2016-09-07T01:46:49.945Z,0
2016-09-07T01:47:49.328Z,0
2016-09-07T01:48:49.641Z,0
2016-09-07T01:49:49.663Z,0
2016-09-07T01:50:49.663Z,0
2016-09-07T01:51:49.353Z,0
2016-09-07T01:52:49.667Z,0
2016-09-07T01:53:49.368Z,0
2016-09-07T01:54:49.373Z,0
2016-09-07T01:55:50.234Z,0
2016-09-07T01:56:49.717Z,0
2016-09-07T01:57:49.396Z,0
2016-09-07T01:58:49.405Z,0
2016-09-07T01:59:49.773Z,0
2016-09-07T02:00:49.107Z,0
2016-09-07T02:01:49.426Z,0
2016-09-07T02:02:49.766Z,0
2016-09-07T02:03:49.136Z,0
2016-09-07T02:04:49.447Z,0
2016-09-07T02:05:49.457Z,0
2016-09-07T02:06:49.699Z,0
2016-09-07T02:07:49.472Z,0
2016-09-07T02:08:51.035Z,0
2016-09-07T02:09:49.481Z,0
2016-09-07T02:10:50.211Z,0
2016-09-07T02:11:49.192Z,0
2016-09-07T02:12:49.203Z,0
2016-09-07T02:13:49.878Z,0
2016-09-07T02:14:49.520Z,0
2016-09-07T02:15:49.544Z,0
2016-09-07T02:16:49.535Z,0
2016-09-07T02:17:49.852Z,0
2016-09-07T02:18:49.601Z,0
2016-09-07T02:19:51.173Z,0
2016-09-07T02:20:49.565Z,0
2016-09-07T02:21:49.655Z,0
2016-09-07T02:22:49.894Z,0
2016-09-07T02:23:49.276Z,0
2016-09-07T02:24:49.906Z,0
2016-09-07T02:25:49.284Z,0
2016-09-07T02:26:50.231Z,0
2016-09-07T02:27:50.237Z,0
2016-09-07T02:28:49.933Z,0
2016-09-07T02:29:49.316Z,0
2016-09-07T02:30:50.860Z,0
2016-09-07T02:31:49.015Z,0
2016-09-07T02:32:49.756Z,0
2016-09-07T02:33:49.347Z,0
2016-09-07T02:34:49.979Z,0
2016-09-07T02:35:49.363Z,0
2016-09-07T02:36:49.989Z,0
2016-09-07T02:37:49.686Z,0
2016-09-07T02:38:50.003Z,0
2016-09-07T02:39:49.702Z,0
2016-09-07T02:40:49.393Z,0
2016-09-07T02:41:50.803Z,0
2016-09-07T02:42:50.033Z,0
2016-09-07T02:43:49.737Z,0
2016-09-07T02:44:50.361Z,0
2016-09-07T02:45:49.807Z,0
2016-09-07T02:46:49.803Z,0
2016-09-07T02:47:49.809Z,0
2016-09-07T02:48:49.446Z,0
2016-09-07T02:49:49.460Z,0
2016-09-07T02:50:49.475Z,0
2016-09-07T02:51:49.785Z,0
2016-09-07T02:52:50.321Z,0
2016-09-07T02:53:50.130Z,0
2016-09-07T02:54:51.952Z,0
2016-09-07T02:55:50.129Z,0
2016-09-07T02:56:50.870Z,0
2016-09-07T02:57:49.820Z,0
2016-09-07T02:58:49.839Z,0
2016-09-07T02:59:49.847Z,0
2016-09-07T03:00:49.534Z,0
2016-09-07T03:01:49.858Z,0
2016-09-07T03:02:50.492Z,0
2016-09-07T03:03:50.371Z,0
2016-09-07T03:04:50.184Z,0
2016-09-07T03:05:49.886Z,0
2016-09-07T03:06:49.581Z,0
2016-09-07T03:07:51.126Z,0
2016-09-07T03:08:50.533Z,0
2016-09-07T03:09:49.290Z,0
2016-09-07T03:10:50.548Z,0
2016-09-07T03:11:50.240Z,0
2016-09-07T03:12:49.940Z,0
2016-09-07T03:13:50.041Z,0
2016-09-07T03:14:50.259Z,0
2016-09-07T03:15:49.958Z,0
2016-09-07T03:16:51.664Z,0
2016-09-07T03:17:49.671Z,0
2016-09-07T03:18:50.821Z,0
2016-09-07T03:19:50.715Z,0
2016-09-07T03:20:50.304Z,0
2016-09-07T03:21:49.999Z,0
2016-09-07T03:22:49.698Z,0
2016-09-07T03:23:49.705Z,0
2016-09-07T03:24:49.400Z,0
2016-09-07T03:25:50.343Z,0
2016-09-07T03:26:50.356Z,0
2016-09-07T03:27:52.071Z,0
2016-09-07T03:28:50.051Z,0
2016-09-07T03:29:50.454Z,0
2016-09-07T03:30:50.389Z,0
2016-09-07T03:31:50.388Z,0
2016-09-07T03:32:50.392Z,0
2016-09-07T03:33:50.401Z,0
2016-09-07T03:34:50.092Z,0
2016-09-07T03:35:50.729Z,0
2016-09-07T03:36:50.119Z,0
2016-09-07T03:37:49.815Z,0
2016-09-07T03:38:51.294Z,0
2016-09-07T03:39:50.758Z,0
2016-09-07T03:40:50.445Z,0
2016-09-07T03:41:50.145Z,0
2016-09-07T03:42:51.630Z,0
2016-09-07T03:43:50.157Z,0
2016-09-07T03:44:50.167Z,0
2016-09-07T03:45:50.796Z,0
2016-09-07T03:46:50.193Z,0
2016-09-07T03:47:50.547Z,0
2016-09-07T03:48:49.939Z,0
2016-09-07T03:49:50.760Z,0
2016-09-07T03:50:50.215Z,0
2016-09-07T03:52:06.707Z,0
2016-09-07T03:52:50.227Z,0
2016-09-07T03:53:51.028Z,0
2016-09-07T03:54:50.548Z,0
2016-09-07T03:55:50.556Z,0
2016-09-07T03:56:50.877Z,0
2016-09-07T03:57:50.582Z,0
2016-09-07T03:58:50.268Z,0
2016-09-07T03:59:50.273Z,0
2016-09-07T04:00:50.911Z,0
2016-09-07T04:01:50.295Z,0
2016-09-07T04:02:51.923Z,0
2016-09-07T04:03:49.993Z,0
2016-09-07T04:04:51.058Z,0
2016-09-07T04:05:50.316Z,0
2016-09-07T04:06:50.319Z,0
2016-09-07T04:07:50.955Z,0
2016-09-07T04:08:49.705Z,0
2016-09-07T04:09:50.969Z,0
2016-09-07T04:10:50.352Z,0
2016-09-07T04:11:50.689Z,0
2016-09-07T04:12:50.684Z,0
2016-09-07T04:13:52.172Z,0
2016-09-07T04:14:50.381Z,0
2016-09-07T04:15:50.714Z,0
2016-09-07T04:16:51.029Z,0
2016-09-07T04:17:50.084Z,0
2016-09-07T04:18:50.411Z,0
2016-09-07T04:19:50.782Z,0
2016-09-07T04:20:50.217Z,0
2016-09-07T04:21:50.433Z,0
2016-09-07T04:22:50.438Z,0
2016-09-07T04:23:50.138Z,0
2016-09-07T04:24:51.763Z,0
2016-09-07T04:25:51.096Z,0
2016-09-07T04:26:50.917Z,0
2016-09-07T04:27:50.474Z,0
2016-09-07T04:28:50.488Z,0
2016-09-07T04:29:50.810Z,0
2016-09-07T04:30:50.491Z,0
2016-09-07T04:31:50.823Z,0
2016-09-07T04:32:50.507Z,0
2016-09-07T04:33:50.520Z,0
2016-09-07T04:34:50.220Z,0
2016-09-07T04:35:51.334Z,0
2016-09-07T04:36:50.538Z,0
2016-09-07T04:37:50.863Z,0
2016-09-07T04:38:50.864Z,0
2016-09-07T04:39:50.244Z,0
2016-09-07T04:40:50.567Z,0
2016-09-07T04:41:50.257Z,0
2016-09-07T04:42:51.208Z,0
2016-09-07T04:43:50.905Z,0
2016-09-07T04:44:50.601Z,0
2016-09-07T04:45:50.605Z,0
2016-09-07T04:46:51.175Z,0
2016-09-07T04:47:50.618Z,0
2016-09-07T04:48:50.412Z,0
2016-09-07T04:49:50.951Z,0
2016-09-07T04:50:51.742Z,0
2016-09-07T04:51:50.959Z,0
2016-09-07T04:52:50.648Z,0
2016-09-07T04:53:50.970Z,0
2016-09-07T04:54:50.976Z,0
2016-09-07T04:55:50.987Z,0
2016-09-07T04:56:50.991Z,0
2016-09-07T04:57:51.314Z,0
2016-09-07T04:58:51.008Z,5
2016-09-07T04:59:52.594Z,5
2016-09-07T05:00:50.715Z,5
2016-09-07T05:01:51.377Z,5
2016-09-07T05:02:50.099Z,5
2016-09-07T05:03:51.040Z,5
2016-09-07T05:04:51.050Z,5
2016-09-07T05:05:50.844Z,5
2016-09-07T05:06:51.377Z,10
2016-09-07T05:07:51.073Z,10
2016-09-07T05:08:51.082Z,10
2016-09-07T05:09:50.460Z,10
2016-09-07T05:10:52.115Z,10
2016-09-07T05:11:51.102Z,15
2016-09-07T05:12:51.357Z,15
2016-09-07T05:13:50.491Z,15
2016-09-07T05:14:50.492Z,15
2016-09-07T05:15:50.815Z,15
2016-09-07T05:16:51.445Z,15
2016-09-07T05:17:51.460Z,15
2016-09-07T05:18:50.840Z,20
2016-09-07T05:19:50.537Z,20
2016-09-07T05:20:51.176Z,20
2016-09-07T05:21:51.728Z,20
2016-09-07T05:22:50.916Z,20
2016-09-07T05:23:50.976Z,20
2016-09-07T05:24:50.887Z,20
2016-09-07T05:25:52.249Z,25
2016-09-07T05:26:51.207Z,25
2016-09-07T05:27:51.647Z,25
2016-09-07T05:28:50.923Z,25
2016-09-07T05:29:50.920Z,25
2016-09-07T05:30:50.609Z,25
2016-09-07T05:31:50.621Z,25
2016-09-07T05:32:51.229Z,25
2016-09-07T05:33:51.620Z,30
2016-09-07T05:34:50.688Z,30
2016-09-07T05:35:50.971Z,30
2016-09-07T05:36:51.967Z,30
2016-09-07T05:37:51.023Z,30
2016-09-07T05:38:51.612Z,30
2016-09-07T05:39:50.675Z,30
2016-09-07T05:40:50.677Z,35
2016-09-07T05:41:51.317Z,35
2016-09-07T05:42:51.005Z,35
2016-09-07T05:43:51.018Z,35
2016-09-07T05:44:51.031Z,35
2016-09-07T05:45:52.959Z,35
2016-09-07T05:46:51.038Z,40
2016-09-07T05:47:51.702Z,40
2016-09-07T05:48:51.685Z,40
2016-09-07T05:49:50.748Z,40
2016-09-07T05:50:51.478Z,45
2016-09-07T05:51:51.074Z,50
2016-09-07T05:52:50.820Z,65
2016-09-07T05:53:51.709Z,70
2016-09-07T05:54:51.092Z,80
2016-09-07T05:55:51.729Z,65
2016-09-07T05:56:51.119Z,50
2016-09-07T05:57:50.809Z,65
2016-09-07T05:58:52.118Z,55
2016-09-07T05:59:51.130Z,65
2016-09-07T06:00:51.762Z,55
2016-09-07T06:01:51.459Z,50
2016-09-07T06:02:50.578Z,50
2016-09-07T06:03:51.161Z,55
2016-09-07T06:04:51.800Z,50
2016-09-07T06:05:51.488Z,50
2016-09-07T06:06:51.808Z,55
2016-09-07T06:07:52.640Z,55
2016-09-07T06:08:50.936Z,50
2016-09-07T06:09:51.806Z,55
2016-09-07T06:10:51.534Z,50
2016-09-07T06:11:51.531Z,55
2016-09-07T06:12:51.536Z,55
2016-09-07T06:13:50.924Z,55
2016-09-07T06:14:51.613Z,60
2016-09-07T06:15:51.299Z,70
2016-09-07T06:16:51.255Z,65
2016-09-07T06:17:51.264Z,60
2016-09-07T06:18:51.963Z,60
2016-09-07T06:19:51.908Z,60
2016-09-07T06:20:51.895Z,60
2016-09-07T06:21:51.294Z,75
2016-09-07T06:22:53.176Z,95
2016-09-07T06:23:51.929Z,85
2016-09-07T06:24:51.677Z,90
2016-09-07T06:25:51.324Z,125
2016-09-07T06:26:51.640Z,170
2016-09-07T06:27:50.711Z,110
2016-09-07T06:28:51.966Z,75
2016-09-07T06:29:52.051Z,80
2016-09-07T06:30:51.371Z,90
2016-09-07T06:31:51.366Z,115
2016-09-07T06:32:51.068Z,175
2016-09-07T06:33:53.348Z,310
2016-09-07T06:34:51.700Z,225
2016-09-07T06:35:52.024Z,120
2016-09-07T06:36:51.091Z,150
2016-09-07T06:37:51.726Z,165
2016-09-07T06:38:51.431Z,325
2016-09-07T06:39:51.117Z,475
2016-09-07T06:40:51.441Z,615
2016-09-07T06:41:51.128Z,695
2016-09-07T06:42:51.914Z,735
2016-09-07T06:43:51.453Z,725
2016-09-07T06:44:53.416Z,735
2016-09-07T06:45:51.791Z,700
2016-09-07T06:46:51.800Z,450
2016-09-07T06:47:51.806Z,155
2016-09-07T06:48:51.500Z,80
2016-09-07T06:49:51.513Z,75
2016-09-07T06:50:51.882Z,75
2016-09-07T06:51:51.217Z,75
2016-09-07T06:52:51.915Z,75
2016-09-07T06:53:51.535Z,75
2016-09-07T06:54:51.866Z,75
2016-09-07T06:55:52.859Z,75
2016-09-07T06:57:06.760Z,75
2016-09-07T06:57:51.986Z,75
2016-09-07T06:58:51.596Z,75
2016-09-07T06:59:51.585Z,80
2016-09-07T07:00:51.652Z,80
2016-09-07T07:01:52.233Z,80
2016-09-07T07:02:51.375Z,80
2016-09-07T07:03:51.625Z,80
2016-09-07T07:04:52.926Z,80
2016-09-07T07:05:51.955Z,80
2016-09-07T07:06:52.763Z,80
2016-09-07T07:07:51.344Z,85
2016-09-07T07:08:51.711Z,85
2016-09-07T07:09:51.681Z,85
2016-09-07T07:10:51.989Z,85
2016-09-07T07:11:52.315Z,85
2016-09-07T07:12:52.327Z,85
2016-09-07T07:13:51.390Z,85
2016-09-07T07:14:51.770Z,85
2016-09-07T07:15:51.776Z,85
2016-09-07T07:16:51.729Z,85
2016-09-07T07:17:52.834Z,85
2016-09-07T07:18:51.846Z,85
2016-09-07T07:19:52.057Z,85
2016-09-07T07:20:51.759Z,85
2016-09-07T07:21:51.776Z,85
2016-09-07T07:22:51.769Z,80
2016-09-07T07:23:52.102Z,85
2016-09-07T07:24:52.414Z,85
2016-09-07T07:25:51.485Z,85
2016-09-07T07:26:52.121Z,80
2016-09-07T07:27:52.215Z,80
2016-09-07T07:28:52.667Z,80
2016-09-07T07:29:52.143Z,80
2016-09-07T07:30:53.974Z,80
2016-09-07T07:31:51.535Z,75
2016-09-07T07:32:51.900Z,75
2016-09-07T07:33:51.859Z,75
2016-09-07T07:34:51.568Z,75
2016-09-07T07:35:52.191Z,75
2016-09-07T07:36:51.569Z,75
2016-09-07T07:37:52.574Z,75
2016-09-07T07:38:51.898Z,75
2016-09-07T07:39:52.528Z,70
2016-09-07T07:40:51.916Z,70
2016-09-07T07:41:53.809Z,70
2016-09-07T07:42:51.929Z,70
2016-09-07T07:43:52.728Z,70
2016-09-07T07:44:51.629Z,70
2016-09-07T07:45:52.574Z,70
2016-09-07T07:46:52.025Z,70
2016-09-07T07:47:51.960Z,70
2016-09-07T07:48:51.975Z,70
2016-09-07T07:49:51.671Z,70
2016-09-07T07:50:52.294Z,70
2016-09-07T07:51:52.621Z,70
2016-09-07T07:52:53.788Z,70
2016-09-07T07:53:51.745Z,70
2016-09-07T07:54:52.580Z,70
2016-09-07T07:55:52.027Z,70
2016-09-07T07:56:52.391Z,70
2016-09-07T07:57:52.086Z,70
2016-09-07T07:58:52.095Z,70
2016-09-07T07:59:52.052Z,70
2016-09-07T08:00:52.372Z,70
2016-09-07T08:01:52.063Z,70
2016-09-07T08:02:52.391Z,70
2016-09-07T08:03:53.657Z,70
2016-09-07T08:04:52.455Z,75
2016-09-07T08:05:52.532Z,75
2016-09-07T08:06:52.731Z,75
2016-09-07T08:07:52.113Z,75
2016-09-07T08:08:52.903Z,75
2016-09-07T08:09:51.602Z,75
2016-09-07T08:10:52.149Z,75
2016-09-07T08:11:52.692Z,75
2016-09-07T08:12:52.515Z,75
2016-09-07T08:13:52.211Z,75
2016-09-07T08:14:53.427Z,75
2016-09-07T08:15:52.536Z,75
2016-09-07T08:16:52.183Z,80
2016-09-07T08:17:52.190Z,80
2016-09-07T08:18:52.824Z,80
2016-09-07T08:19:52.517Z,85
2016-09-07T08:20:52.207Z,85
2016-09-07T08:21:52.219Z,85
2016-09-07T08:22:52.226Z,90
2016-09-07T08:23:52.550Z,95
2016-09-07T08:24:52.555Z,115
2016-09-07T08:25:53.161Z,555
2016-09-07T08:26:52.565Z,1145
2016-09-07T08:27:52.571Z,1245
2016-09-07T08:28:52.583Z,1260
2016-09-07T08:29:53.339Z,1375
2016-09-07T08:30:52.724Z,1400
2016-09-07T08:31:52.296Z,1385
2016-09-07T08:32:52.360Z,1385
2016-09-07T08:33:52.937Z,1340
2016-09-07T08:34:52.384Z,1195
2016-09-07T08:35:52.024Z,745
2016-09-07T08:36:52.639Z,250
2016-09-07T08:37:52.663Z,160
2016-09-07T08:38:54.441Z,150
2016-09-07T08:39:52.996Z,140
2016-09-07T08:40:53.187Z,130
2016-09-07T08:41:52.702Z,125
2016-09-07T08:42:52.394Z,120
2016-09-07T08:43:52.090Z,115
2016-09-07T08:44:51.784Z,120
2016-09-07T08:45:52.740Z,115
2016-09-07T08:46:52.742Z,115
2016-09-07T08:47:52.492Z,115
2016-09-07T08:48:53.123Z,115
2016-09-07T08:49:54.075Z,115
2016-09-07T08:50:52.518Z,115
2016-09-07T08:51:52.963Z,115
2016-09-07T08:52:53.108Z,110
2016-09-07T08:53:52.493Z,105
2016-09-07T08:54:53.124Z,100
2016-09-07T08:55:53.047Z,105
2016-09-07T08:56:52.843Z,105
2016-09-07T08:57:52.982Z,105
2016-09-07T08:58:52.222Z,105
2016-09-07T08:59:52.229Z,105
2016-09-07T09:00:54.183Z,100
2016-09-07T09:01:52.243Z,100
2016-09-07T09:02:52.980Z,100
2016-09-07T09:03:53.200Z,95
2016-09-07T09:04:52.899Z,95
2016-09-07T09:05:52.641Z,95
2016-09-07T09:06:53.007Z,95
2016-09-07T09:07:52.660Z,95
2016-09-07T09:08:52.762Z,95
2016-09-07T09:09:53.043Z,95
2016-09-07T09:10:52.730Z,95
2016-09-07T09:11:53.737Z,95
2016-09-07T09:12:52.959Z,90
2016-09-07T09:13:52.595Z,90
2016-09-07T09:14:53.439Z,95
2016-09-07T09:15:52.369Z,90
2016-09-07T09:16:52.682Z,95
2016-09-07T09:17:52.998Z,95
2016-09-07T09:18:52.383Z,95
2016-09-07T09:19:52.707Z,95
2016-09-07T09:20:53.020Z,95
2016-09-07T09:21:53.036Z,95
2016-09-07T09:22:53.488Z,95
2016-09-07T09:23:53.363Z,95
2016-09-07T09:24:55.029Z,90
2016-09-07T09:25:53.378Z,90
2016-09-07T09:26:53.777Z,85
2016-09-07T09:27:52.564Z,85
2016-09-07T09:28:53.407Z,90
2016-09-07T09:29:52.790Z,90
2016-09-07T09:30:52.794Z,90
2016-09-07T09:31:52.551Z,85
2016-09-07T09:32:53.171Z,85
2016-09-07T09:33:52.924Z,85
2016-09-07T09:34:52.871Z,85
2016-09-07T09:35:54.935Z,85
2016-09-07T09:36:52.838Z,85
2016-09-07T09:37:53.804Z,90
2016-09-07T09:38:53.483Z,90
2016-09-07T09:39:52.606Z,90
2016-09-07T09:40:52.884Z,85
2016-09-07T09:41:52.572Z,85
2016-09-07T09:43:03.208Z,85
2016-09-07T09:43:52.585Z,85
2016-09-07T09:44:52.917Z,85
2016-09-07T09:45:53.543Z,85
2016-09-07T09:46:55.011Z,85
2016-09-07T09:47:52.933Z,85
2016-09-07T09:48:53.869Z,85
2016-09-07T09:49:53.570Z,85
2016-09-07T09:50:53.636Z,85
2016-09-07T09:51:53.277Z,85
2016-09-07T09:52:53.331Z,85
2016-09-07T09:53:52.669Z,80
2016-09-07T09:54:53.036Z,80
2016-09-07T09:55:53.637Z,80
2016-09-07T09:56:53.317Z,80
2016-09-07T09:57:52.757Z,85
2016-09-07T09:58:52.712Z,80
2016-09-07T09:59:53.681Z,80
2016-09-07T10:00:52.724Z,80
2016-09-07T10:01:52.781Z,80
2016-09-07T10:02:53.054Z,80
2016-09-07T10:03:53.370Z,80
2016-09-07T10:04:52.755Z,80
2016-09-07T10:05:53.078Z,80
2016-09-07T10:06:53.714Z,80
2016-09-07T10:07:53.145Z,80
2016-09-07T10:08:54.268Z,80
2016-09-07T10:09:53.421Z,80
2016-09-07T10:10:53.157Z,80
2016-09-07T10:11:53.224Z,80
2016-09-07T10:12:53.182Z,80
2016-09-07T10:13:53.464Z,80
2016-09-07T10:14:53.508Z,80
2016-09-07T10:15:52.844Z,80
2016-09-07T10:16:53.476Z,80
2016-09-07T10:17:53.176Z,80
2016-09-07T10:18:53.184Z,80
2016-09-07T10:19:54.409Z,80
2016-09-07T10:20:53.511Z,80
2016-09-07T10:21:53.611Z,80
2016-09-07T10:22:53.214Z,80
2016-09-07T10:23:54.938Z,80
2016-09-07T10:24:52.918Z,80
2016-09-07T10:25:53.239Z,80
2016-09-07T10:26:53.246Z,75
2016-09-07T10:27:53.566Z,75
2016-09-07T10:28:53.017Z,75
2016-09-07T10:29:52.957Z,75
2016-09-07T10:30:53.414Z,75
2016-09-07T10:31:53.724Z,75
2016-09-07T10:32:53.287Z,75
2016-09-07T10:33:53.612Z,75
2016-09-07T10:34:54.365Z,75
2016-09-07T10:35:53.009Z,75
2016-09-07T10:36:53.631Z,75
2016-09-07T10:37:53.692Z,70
2016-09-07T10:38:53.384Z,70
2016-09-07T10:39:53.708Z,70
2016-09-07T10:40:53.991Z,70
2016-09-07T10:41:53.991Z,65
2016-09-07T10:42:53.739Z,70
2016-09-07T10:43:53.220Z,70
2016-09-07T10:44:53.754Z,70
2016-09-07T10:45:54.503Z,70
2016-09-07T10:46:53.448Z,70
2016-09-07T10:47:53.788Z,70
2016-09-07T10:48:54.043Z,70
2016-09-07T10:49:52.800Z,70
2016-09-07T10:50:53.435Z,70
2016-09-07T10:51:54.073Z,70
2016-09-07T10:52:54.128Z,70
2016-09-07T10:53:53.149Z,70
2016-09-07T10:54:54.794Z,70
2016-09-07T10:55:53.488Z,70
2016-09-07T10:56:54.334Z,70
2016-09-07T10:57:54.587Z,70
2016-09-07T10:58:53.913Z,70
2016-09-07T10:59:53.240Z,70
2016-09-07T11:00:53.918Z,70
2016-09-07T11:01:53.840Z,70
2016-09-07T11:02:53.534Z,70
2016-09-07T11:03:53.548Z,70
2016-09-07T11:04:53.866Z,70
2016-09-07T11:05:53.552Z,65
2016-09-07T11:06:53.973Z,65
2016-09-07T11:07:54.688Z,65
2016-09-07T11:08:53.890Z,65
2016-09-07T11:09:53.321Z,65
2016-09-07T11:10:53.282Z,65
2016-09-07T11:11:53.923Z,65
2016-09-07T11:13:08.042Z,65
2016-09-07T11:13:53.619Z,65
2016-09-07T11:14:53.681Z,65
2016-09-07T11:15:53.320Z,65
2016-09-07T11:16:55.082Z,65
2016-09-07T11:17:54.014Z,65
2016-09-07T11:18:54.112Z,65
2016-09-07T11:19:53.345Z,65
2016-09-07T11:20:53.811Z,65
2016-09-07T11:21:54.483Z,65
2016-09-07T11:22:54.420Z,65
2016-09-07T11:23:54.075Z,65
2016-09-07T11:24:53.441Z,65
2016-09-07T11:25:54.031Z,65
2016-09-07T11:26:53.407Z,65
2016-09-07T11:27:55.014Z,65
2016-09-07T11:28:53.118Z,60
2016-09-07T11:29:54.747Z,60
2016-09-07T11:30:53.753Z,60
2016-09-07T11:31:56.065Z,60
2016-09-07T11:32:54.081Z,60
2016-09-07T11:33:53.463Z,60
2016-09-07T11:34:53.783Z,60
2016-09-07T11:35:54.413Z,60
2016-09-07T11:36:53.554Z,60
2016-09-07T11:37:53.653Z,60
2016-09-07T11:38:54.181Z,60
2016-09-07T11:39:54.128Z,60
2016-09-07T11:40:54.652Z,60
2016-09-07T11:41:54.144Z,60
2016-09-07T11:43:12.735Z,65
2016-09-07T11:43:54.217Z,60
2016-09-07T11:44:54.872Z,60
2016-09-07T11:45:54.186Z,60
2016-09-07T11:46:53.560Z,60
2016-09-07T11:47:53.882Z,60
2016-09-07T11:48:53.935Z,60
2016-09-07T11:49:54.258Z,60
2016-09-07T11:50:54.223Z,60
2016-09-07T11:51:54.018Z,60
2016-09-07T11:52:53.973Z,55
2016-09-07T11:53:54.288Z,55
2016-09-07T11:54:54.250Z,55
2016-09-07T11:55:54.447Z,55
2016-09-07T11:56:54.268Z,55
2016-09-07T11:57:54.275Z,55
2016-09-07T11:58:53.396Z,55
2016-09-07T11:59:54.609Z,55
2016-09-07T12:00:53.668Z,55
2016-09-07T12:01:53.734Z,55
2016-09-07T12:02:54.631Z,55
2016-09-07T12:03:54.701Z,55
2016-09-07T12:04:55.371Z,55
2016-09-07T12:05:53.713Z,55
2016-09-07T12:06:54.552Z,55
2016-09-07T12:07:54.041Z,55
2016-09-07T12:08:53.791Z,55
2016-09-07T12:09:54.059Z,55
2016-09-07T12:10:53.822Z,55
2016-09-07T12:11:54.083Z,55
2016-09-07T12:12:54.084Z,55
2016-09-07T12:13:54.144Z,50
2016-09-07T12:14:54.729Z,50
2016-09-07T12:15:55.802Z,50
2016-09-07T12:16:54.124Z,50
2016-09-07T12:17:54.626Z,50
2016-09-07T12:18:53.819Z,50
2016-09-07T12:19:54.555Z,50
2016-09-07T12:20:54.464Z,50
2016-09-07T12:21:54.472Z,50
2016-09-07T12:22:54.897Z,50
2016-09-07T12:23:54.176Z,50
2016-09-07T12:24:54.497Z,50
2016-09-07T12:25:54.191Z,50
2016-09-07T12:26:55.449Z,50
2016-09-07T12:27:53.891Z,50
2016-09-07T12:28:54.652Z,50
2016-09-07T12:29:54.529Z,50
2016-09-07T12:30:54.557Z,50
2016-09-07T12:31:54.238Z,50
2016-09-07T12:32:54.300Z,50
2016-09-07T12:33:54.884Z,50
2016-09-07T12:34:54.262Z,50
2016-09-07T12:35:54.582Z,50
2016-09-07T12:36:53.979Z,50
2016-09-07T12:37:55.062Z,50
2016-09-07T12:38:54.345Z,50
2016-09-07T12:39:54.733Z,45
2016-09-07T12:40:53.681Z,45
2016-09-07T12:41:54.384Z,45
2016-09-07T12:42:54.688Z,45
2016-09-07T12:43:54.336Z,45
2016-09-07T12:44:54.343Z,45
2016-09-07T12:45:54.668Z,45
2016-09-07T12:46:54.720Z,45
2016-09-07T12:47:54.418Z,45
2016-09-07T12:48:55.225Z,45
2016-09-07T12:49:54.707Z,45
2016-09-07T12:50:54.485Z,45
2016-09-07T12:51:54.400Z,45
2016-09-07T12:52:55.805Z,50
2016-09-07T12:53:54.730Z,50
2016-09-07T12:54:54.219Z,50
2016-09-07T12:55:54.849Z,50
2016-09-07T12:56:54.123Z,50
2016-09-07T12:57:54.758Z,50
2016-09-07T12:58:54.513Z,50
2016-09-07T12:59:55.278Z,50
2016-09-07T13:00:54.785Z,50
2016-09-07T13:01:56.796Z,50
2016-09-07T13:02:54.484Z,50
2016-09-07T13:03:55.577Z,50
2016-09-07T13:04:55.180Z,50
2016-09-07T13:05:54.872Z,50
2016-09-07T13:06:54.829Z,50
2016-09-07T13:07:54.841Z,50
2016-09-07T13:08:54.221Z,50
2016-09-07T13:09:53.973Z,50
2016-09-07T13:10:55.237Z,50
2016-09-07T13:11:54.916Z,50
2016-09-07T13:12:56.550Z,50
2016-09-07T13:13:54.943Z,50
2016-09-07T13:14:55.379Z,50
2016-09-07T13:15:54.906Z,45
2016-09-07T13:16:54.620Z,45
2016-09-07T13:17:54.916Z,45
2016-09-07T13:18:54.946Z,45
2016-09-07T13:19:54.613Z,45
2016-09-07T13:20:54.989Z,45
2016-09-07T13:21:55.309Z,45
2016-09-07T13:22:54.662Z,45
2016-09-07T13:23:56.429Z,45
2016-09-07T13:24:54.682Z,45
2016-09-07T13:25:55.091Z,45
2016-09-07T13:26:55.338Z,45
2016-09-07T13:27:56.305Z,45
2016-09-07T13:28:54.718Z,45
2016-09-07T13:29:54.086Z,45
2016-09-07T13:30:54.386Z,45
2016-09-07T13:31:54.399Z,45
2016-09-07T13:32:55.031Z,45
2016-09-07T13:33:54.420Z,40
2016-09-07T13:34:56.267Z,45
2016-09-07T13:35:55.054Z,45
2016-09-07T13:36:55.266Z,45
2016-09-07T13:37:55.073Z,45
2016-09-07T13:38:56.677Z,40
2016-09-07T13:39:54.567Z,45
2016-09-07T13:40:54.792Z,40
2016-09-07T13:41:55.182Z,40
2016-09-07T13:43:54.853Z,40
2016-09-07T13:44:55.175Z,40
2016-09-07T13:45:56.087Z,40
2016-09-07T13:46:54.525Z,40
2016-09-07T13:47:55.208Z,40
2016-09-07T13:48:55.155Z,40
2016-09-07T13:49:55.163Z,40
2016-09-07T13:50:55.187Z,40
2016-09-07T13:51:55.501Z,40
2016-09-07T13:52:55.545Z,40
2016-09-07T13:53:54.892Z,40
2016-09-07T13:54:55.200Z,40
2016-09-07T13:55:54.952Z,40
2016-09-07T13:56:55.297Z,40
2016-09-07T13:57:55.599Z,40
2016-09-07T13:58:55.411Z,40
2016-09-07T13:59:54.933Z,40
2016-09-07T14:00:56.693Z,40
2016-09-07T14:01:55.257Z,40
2016-09-07T14:02:55.336Z,40
2016-09-07T14:03:54.661Z,40
2016-09-07T14:04:54.410Z,40
2016-09-07T14:05:55.296Z,40
2016-09-07T14:06:54.997Z,40
2016-09-07T14:07:55.632Z,40
2016-09-07T14:08:55.057Z,40
2016-09-07T14:09:55.479Z,40
2016-09-07T14:10:55.379Z,40
2016-09-07T14:11:56.286Z,40
2016-09-07T14:13:55.775Z,40
2016-09-07T14:14:55.725Z,40
2016-09-07T14:15:55.683Z,40
2016-09-07T14:16:55.379Z,40
2016-09-07T14:17:55.384Z,40
2016-09-07T14:18:55.083Z,40
2016-09-07T14:19:55.090Z,40
2016-09-07T14:20:55.414Z,40
2016-09-07T14:21:55.209Z,40
2016-09-07T14:22:56.603Z,40
2016-09-07T14:23:55.754Z,40
2016-09-07T14:24:55.378Z,40
2016-09-07T14:25:55.138Z,40
2016-09-07T14:26:54.568Z,40